sensor_id;sensor_type;location;lat;lon;timestamp;temperature;humidity
29353;DHT22;16344;50.364;8.944;2022-09-20T00:02:17;13.30;99.90
29353;DHT22;16344;50.364;8.944;2022-09-20T00:04:42;13.40;99.90
29353;DHT22;16344;50.364;8.944;2022-09-20T00:07:08;13.30;99.90
29353;DHT22;16344;50.364;8.944;2022-09-20T00:09:34;13.30;99.90
29353;DHT22;16344;50.364;8.944;2022-09-20T00:11:59;13.40;99.90
29353;DHT22;16344;50.364;8.944;2022-09-20T00:14:25;13.40;99.90
29353;DHT22;16344;50.364;8.944;2022-09-20T00:16:51;13.40;99.90
29353;DHT22;16344;50.364;8.944;2022-09-20T00:19:20;13.40;99.90
29353;DHT22;16344;50.364;8.944;2022-09-20T00:21:46;13.40;99.90
29353;DHT22;16344;50.364;8.944;2022-09-20T00:24:12;13.40;99.90
29353;DHT22;16344;50.364;8.944;2022-09-20T00:26:38;13.40;99.90
29353;DHT22;16344;50.364;8.944;2022-09-20T00:29:05;13.30;99.90
29353;DHT22;16344;50.364;8.944;2022-09-20T00:31:30;13.20;99.90
29353;DHT22;16344;50.364;8.944;2022-09-20T00:33:57;13.10;99.90
29353;DHT22;16344;50.364;8.944;2022-09-20T00:36:42;13.10;99.90
29353;DHT22;16344;50.364;8.944;2022-09-20T00:39:10;13.10;99.90
29353;DHT22;16344;50.364;8.944;2022-09-20T00:41:36;13.00;99.90
29353;DHT22;16344;50.364;8.944;2022-09-20T00:44:35;13.00;99.90
29353;DHT22;16344;50.364;8.944;2022-09-20T00:46:47;13.10;99.90
29353;DHT22;16344;50.364;8.944;2022-09-20T00:49:16;13.10;99.90
29353;DHT22;16344;50.364;8.944;2022-09-20T00:51:46;13.10;99.90
29353;DHT22;16344;50.364;8.944;2022-09-20T00:54:14;13.20;99.90
29353;DHT22;16344;50.364;8.944;2022-09-20T00:56:41;13.10;99.90
29353;DHT22;16344;50.364;8.944;2022-09-20T00:59:31;13.10;99.90
29353;DHT22;16344;50.364;8.944;2022-09-20T01:02:14;13.10;99.90
29353;DHT22;16344;50.364;8.944;2022-09-20T01:04:41;13.00;99.90
29353;DHT22;16344;50.364;8.944;2022-09-20T01:07:08;13.00;99.90
29353;DHT22;16344;50.364;8.944;2022-09-20T01:09:35;12.90;99.90
29353;DHT22;16344;50.364;8.944;2022-09-20T01:12:04;12.90;99.90
29353;DHT22;16344;50.364;8.944;2022-09-20T01:14:30;12.90;99.90
29353;DHT22;16344;50.364;8.944;2022-09-20T01:17:02;12.80;99.90
29353;DHT22;16344;50.364;8.944;2022-09-20T01:19:33;12.70;99.90
29353;DHT22;16344;50.364;8.944;2022-09-20T01:22:04;12.70;99.90
29353;DHT22;16344;50.364;8.944;2022-09-20T01:30:07;12.60;99.90
29353;DHT22;16344;50.364;8.944;2022-09-20T01:35:51;12.50;99.90
29353;DHT22;16344;50.364;8.944;2022-09-20T01:38:21;12.50;99.90
29353;DHT22;16344;50.364;8.944;2022-09-20T01:46:30;12.50;99.90
29353;DHT22;16344;50.364;8.944;2022-09-20T01:49:13;12.60;99.90
29353;DHT22;16344;50.364;8.944;2022-09-20T01:52:02;12.40;99.90
29353;DHT22;16344;50.364;8.944;2022-09-20T01:57:55;12.40;99.90
29353;DHT22;16344;50.364;8.944;2022-09-20T02:00:30;12.30;99.90
29353;DHT22;16344;50.364;8.944;2022-09-20T02:05:57;12.30;99.90
29353;DHT22;16344;50.364;8.944;2022-09-20T02:17:12;12.10;99.90
29353;DHT22;16344;50.364;8.944;2022-09-20T02:25:20;12.10;99.90
29353;DHT22;16344;50.364;8.944;2022-09-20T02:28:04;12.10;99.90
29353;DHT22;16344;50.364;8.944;2022-09-20T02:31:01;12.10;99.90
29353;DHT22;16344;50.364;8.944;2022-09-20T02:36:40;12.20;99.90
29353;DHT22;16344;50.364;8.944;2022-09-20T02:39:18;12.10;99.90
29353;DHT22;16344;50.364;8.944;2022-09-20T02:44:44;12.20;99.90
29353;DHT22;16344;50.364;8.944;2022-09-20T02:47:32;12.10;99.90
29353;DHT22;16344;50.364;8.944;2022-09-20T02:50:28;12.20;99.90
29353;DHT22;16344;50.364;8.944;2022-09-20T02:59:00;12.20;99.90
29353;DHT22;16344;50.364;8.944;2022-09-20T03:07:05;11.90;99.90
29353;DHT22;16344;50.364;8.944;2022-09-20T03:16:02;12.00;99.90
29353;DHT22;16344;50.364;8.944;2022-09-20T03:27:41;11.80;99.90
29353;DHT22;16344;50.364;8.944;2022-09-20T03:30:45;11.90;99.90
29353;DHT22;16344;50.364;8.944;2022-09-20T03:33:44;11.80;99.90
29353;DHT22;16344;50.364;8.944;2022-09-20T03:37:00;11.70;99.90
29353;DHT22;16344;50.364;8.944;2022-09-20T03:39:50;11.70;99.90
29353;DHT22;16344;50.364;8.944;2022-09-20T03:42:24;11.70;99.90
29353;DHT22;16344;50.364;8.944;2022-09-20T03:45:25;11.50;99.90
29353;DHT22;16344;50.364;8.944;2022-09-20T03:58:59;11.80;99.90
29353;DHT22;16344;50.364;8.944;2022-09-20T04:01:37;11.70;99.90
29353;DHT22;16344;50.364;8.944;2022-09-20T04:04:14;11.80;99.90
29353;DHT22;16344;50.364;8.944;2022-09-20T04:10:31;11.60;99.90
29353;DHT22;16344;50.364;8.944;2022-09-20T04:12:52;11.60;99.90
29353;DHT22;16344;50.364;8.944;2022-09-20T04:18:32;11.50;99.90
29353;DHT22;16344;50.364;8.944;2022-09-20T04:26:47;11.40;99.90
29353;DHT22;16344;50.364;8.944;2022-09-20T04:29:28;11.40;99.90
29353;DHT22;16344;50.364;8.944;2022-09-20T04:34:34;11.50;99.90
29353;DHT22;16344;50.364;8.944;2022-09-20T04:37:31;11.50;99.90
29353;DHT22;16344;50.364;8.944;2022-09-20T04:40:08;11.50;99.90
29353;DHT22;16344;50.364;8.944;2022-09-20T04:43:15;11.50;99.90
29353;DHT22;16344;50.364;8.944;2022-09-20T04:51:38;11.50;99.90
29353;DHT22;16344;50.364;8.944;2022-09-20T05:00:06;11.50;99.90
29353;DHT22;16344;50.364;8.944;2022-09-20T05:06:06;11.50;99.90
29353;DHT22;16344;50.364;8.944;2022-09-20T05:08:43;11.50;99.90
29353;DHT22;16344;50.364;8.944;2022-09-20T05:11:44;11.50;99.90
29353;DHT22;16344;50.364;8.944;2022-09-20T05:19:58;11.50;99.90
29353;DHT22;16344;50.364;8.944;2022-09-20T05:22:59;11.40;99.90
29353;DHT22;16344;50.364;8.944;2022-09-20T05:25:50;11.40;99.90
29353;DHT22;16344;50.364;8.944;2022-09-20T05:34:47;11.50;99.90
29353;DHT22;16344;50.364;8.944;2022-09-20T05:42:56;12.30;99.90
29353;DHT22;16344;50.364;8.944;2022-09-20T05:48:13;12.60;99.90
29353;DHT22;16344;50.364;8.944;2022-09-20T05:50:58;12.50;99.90
29353;DHT22;16344;50.364;8.944;2022-09-20T05:56:55;12.30;99.90
29353;DHT22;16344;50.364;8.944;2022-09-20T05:59:46;12.20;99.90
29353;DHT22;16344;50.364;8.944;2022-09-20T06:02:38;12.00;99.90
29353;DHT22;16344;50.364;8.944;2022-09-20T06:08:14;11.80;99.90
29353;DHT22;16344;50.364;8.944;2022-09-20T06:11:11;11.80;99.90
29353;DHT22;16344;50.364;8.944;2022-09-20T06:17:09;12.10;99.90
29353;DHT22;16344;50.364;8.944;2022-09-20T06:22:32;12.60;99.90
29353;DHT22;16344;50.364;8.944;2022-09-20T06:25:02;12.80;99.90
29353;DHT22;16344;50.364;8.944;2022-09-20T06:27:38;13.00;99.90
29353;DHT22;16344;50.364;8.944;2022-09-20T06:30:11;13.20;99.90
29353;DHT22;16344;50.364;8.944;2022-09-20T06:35:39;13.40;99.90
29353;DHT22;16344;50.364;8.944;2022-09-20T06:40:57;13.50;99.90
29353;DHT22;16344;50.364;8.944;2022-09-20T06:43:41;13.60;99.90
29353;DHT22;16344;50.364;8.944;2022-09-20T06:46:07;13.70;99.90
29353;DHT22;16344;50.364;8.944;2022-09-20T06:48:32;13.80;99.90
29353;DHT22;16344;50.364;8.944;2022-09-20T06:50:59;13.80;99.90
29353;DHT22;16344;50.364;8.944;2022-09-20T06:53:29;13.90;99.90
29353;DHT22;16344;50.364;8.944;2022-09-20T06:55:55;14.00;99.90
29353;DHT22;16344;50.364;8.944;2022-09-20T06:58:21;14.20;99.90
29353;DHT22;16344;50.364;8.944;2022-09-20T07:00:46;14.30;99.90
29353;DHT22;16344;50.364;8.944;2022-09-20T07:03:12;14.30;99.90
29353;DHT22;16344;50.364;8.944;2022-09-20T07:05:38;14.40;99.90
29353;DHT22;16344;50.364;8.944;2022-09-20T07:08:04;14.40;99.90
29353;DHT22;16344;50.364;8.944;2022-09-20T07:10:30;14.50;99.90
29353;DHT22;16344;50.364;8.944;2022-09-20T07:13:00;14.40;99.90
29353;DHT22;16344;50.364;8.944;2022-09-20T07:15:30;14.60;99.90
29353;DHT22;16344;50.364;8.944;2022-09-20T07:17:56;14.70;99.90
29353;DHT22;16344;50.364;8.944;2022-09-20T07:20:22;14.70;99.90
29353;DHT22;16344;50.364;8.944;2022-09-20T07:22:48;14.80;99.90
29353;DHT22;16344;50.364;8.944;2022-09-20T07:25:13;14.90;99.90
29353;DHT22;16344;50.364;8.944;2022-09-20T07:27:39;15.10;99.90
29353;DHT22;16344;50.364;8.944;2022-09-20T07:30:06;15.10;99.90
29353;DHT22;16344;50.364;8.944;2022-09-20T07:32:32;15.30;99.90
29353;DHT22;16344;50.364;8.944;2022-09-20T07:34:57;15.20;99.50
29353;DHT22;16344;50.364;8.944;2022-09-20T07:37:23;15.00;99.90
29353;DHT22;16344;50.364;8.944;2022-09-20T07:39:49;15.00;99.90
29353;DHT22;16344;50.364;8.944;2022-09-20T07:42:14;15.10;99.90
29353;DHT22;16344;50.364;8.944;2022-09-20T07:44:40;15.20;99.90
29353;DHT22;16344;50.364;8.944;2022-09-20T07:47:08;15.20;99.90
29353;DHT22;16344;50.364;8.944;2022-09-20T07:49:35;15.10;99.90
29353;DHT22;16344;50.364;8.944;2022-09-20T07:52:01;14.80;99.90
29353;DHT22;16344;50.364;8.944;2022-09-20T07:54:26;15.00;99.90
29353;DHT22;16344;50.364;8.944;2022-09-20T07:56:52;14.90;99.90
29353;DHT22;16344;50.364;8.944;2022-09-20T07:59:18;14.80;99.90
29353;DHT22;16344;50.364;8.944;2022-09-20T08:01:43;14.80;99.90
29353;DHT22;16344;50.364;8.944;2022-09-20T08:04:09;14.90;99.90
29353;DHT22;16344;50.364;8.944;2022-09-20T08:06:40;14.80;99.90
29353;DHT22;16344;50.364;8.944;2022-09-20T08:09:06;14.90;99.90
29353;DHT22;16344;50.364;8.944;2022-09-20T08:11:32;14.90;99.90
29353;DHT22;16344;50.364;8.944;2022-09-20T08:13:59;14.90;99.90
29353;DHT22;16344;50.364;8.944;2022-09-20T08:16:25;14.80;99.90
29353;DHT22;16344;50.364;8.944;2022-09-20T08:18:54;14.90;99.90
29353;DHT22;16344;50.364;8.944;2022-09-20T08:21:25;14.80;99.90
29353;DHT22;16344;50.364;8.944;2022-09-20T08:23:51;15.00;99.90
29353;DHT22;16344;50.364;8.944;2022-09-20T08:26:19;15.20;99.90
29353;DHT22;16344;50.364;8.944;2022-09-20T08:28:46;15.20;99.90
29353;DHT22;16344;50.364;8.944;2022-09-20T08:31:16;15.10;99.90
29353;DHT22;16344;50.364;8.944;2022-09-20T08:33:44;15.10;99.90
29353;DHT22;16344;50.364;8.944;2022-09-20T08:36:21;15.00;99.90
29353;DHT22;16344;50.364;8.944;2022-09-20T08:38:48;15.10;99.90
29353;DHT22;16344;50.364;8.944;2022-09-20T08:41:20;15.20;99.90
29353;DHT22;16344;50.364;8.944;2022-09-20T08:46:42;15.20;99.90
29353;DHT22;16344;50.364;8.944;2022-09-20T08:49:13;15.30;99.90
29353;DHT22;16344;50.364;8.944;2022-09-20T08:51:41;15.30;99.90
29353;DHT22;16344;50.364;8.944;2022-09-20T08:54:10;15.30;99.90
29353;DHT22;16344;50.364;8.944;2022-09-20T08:56:38;15.30;99.90
29353;DHT22;16344;50.364;8.944;2022-09-20T08:59:05;15.40;99.90
29353;DHT22;16344;50.364;8.944;2022-09-20T09:01:33;15.40;99.90
29353;DHT22;16344;50.364;8.944;2022-09-20T09:04:14;15.40;71.40
29353;DHT22;16344;50.364;8.944;2022-09-20T09:06:41;15.40;99.90
29353;DHT22;16344;50.364;8.944;2022-09-20T09:09:17;15.60;78.00
29353;DHT22;16344;50.364;8.944;2022-09-20T09:11:44;15.80;50.80
29353;DHT22;16344;50.364;8.944;2022-09-20T09:14:33;15.80;21.70
29353;DHT22;16344;50.364;8.944;2022-09-20T09:17:24;16.00;22.90
29353;DHT22;16344;50.364;8.944;2022-09-20T09:22:21;16.40;1.00
29353;DHT22;16344;50.364;8.944;2022-09-20T09:27:31;16.50;1.00
29353;DHT22;16344;50.364;8.944;2022-09-20T09:29:56;16.60;1.00
29353;DHT22;16344;50.364;8.944;2022-09-20T09:32:25;16.80;1.00
29353;DHT22;16344;50.364;8.944;2022-09-20T09:34:54;16.90;1.00
29353;DHT22;16344;50.364;8.944;2022-09-20T09:37:28;16.90;1.00
29353;DHT22;16344;50.364;8.944;2022-09-20T09:40:28;16.90;1.00
29353;DHT22;16344;50.364;8.944;2022-09-20T09:43:00;16.90;1.00
29353;DHT22;16344;50.364;8.944;2022-09-20T09:45:32;16.80;1.00
29353;DHT22;16344;50.364;8.944;2022-09-20T09:48:00;16.90;1.00
29353;DHT22;16344;50.364;8.944;2022-09-20T09:50:32;16.90;1.00
29353;DHT22;16344;50.364;8.944;2022-09-20T09:53:01;16.90;1.00
29353;DHT22;16344;50.364;8.944;2022-09-20T09:55:39;17.00;1.00
29353;DHT22;16344;50.364;8.944;2022-09-20T10:01:00;17.10;1.00
29353;DHT22;16344;50.364;8.944;2022-09-20T10:06:42;16.90;1.00
29353;DHT22;16344;50.364;8.944;2022-09-20T10:15:18;16.90;1.00
29353;DHT22;16344;50.364;8.944;2022-09-20T10:26:08;17.20;1.00
29353;DHT22;16344;50.364;8.944;2022-09-20T10:28:55;17.40;1.00
29353;DHT22;16344;50.364;8.944;2022-09-20T10:36:58;17.20;1.00
29353;DHT22;16344;50.364;8.944;2022-09-20T10:39:32;17.00;1.00
29353;DHT22;16344;50.364;8.944;2022-09-20T10:47:55;16.90;1.00
29353;DHT22;16344;50.364;8.944;2022-09-20T10:53:42;17.20;1.00
29353;DHT22;16344;50.364;8.944;2022-09-20T10:56:22;17.30;1.00
29353;DHT22;16344;50.364;8.944;2022-09-20T11:02:00;17.50;1.00
29353;DHT22;16344;50.364;8.944;2022-09-20T11:07:38;17.40;1.00
29353;DHT22;16344;50.364;8.944;2022-09-20T11:10:18;17.50;1.00
29353;DHT22;16344;50.364;8.944;2022-09-20T11:13:07;17.50;1.00
29353;DHT22;16344;50.364;8.944;2022-09-20T11:15:42;17.50;1.00
29353;DHT22;16344;50.364;8.944;2022-09-20T11:18:28;17.60;1.00
29353;DHT22;16344;50.364;8.944;2022-09-20T11:21:06;17.60;1.00
29353;DHT22;16344;50.364;8.944;2022-09-20T11:26:36;17.50;1.00
29353;DHT22;16344;50.364;8.944;2022-09-20T11:29:25;17.50;1.00
29353;DHT22;16344;50.364;8.944;2022-09-20T11:31:55;17.40;1.00
29353;DHT22;16344;50.364;8.944;2022-09-20T11:34:31;17.40;1.00
29353;DHT22;16344;50.364;8.944;2022-09-20T11:36:59;17.60;1.00
29353;DHT22;16344;50.364;8.944;2022-09-20T11:39:39;18.00;1.00
29353;DHT22;16344;50.364;8.944;2022-09-20T11:42:13;18.30;1.00
29353;DHT22;16344;50.364;8.944;2022-09-20T11:44:40;18.40;1.00
29353;DHT22;16344;50.364;8.944;2022-09-20T11:47:16;18.20;1.00
29353;DHT22;16344;50.364;8.944;2022-09-20T11:52:44;17.80;1.00
29353;DHT22;16344;50.364;8.944;2022-09-20T11:55:38;18.00;1.00
29353;DHT22;16344;50.364;8.944;2022-09-20T11:58:10;18.20;1.00
29353;DHT22;16344;50.364;8.944;2022-09-20T12:00:42;18.40;1.00
29353;DHT22;16344;50.364;8.944;2022-09-20T12:05:45;18.50;1.00
29353;DHT22;16344;50.364;8.944;2022-09-20T12:08:35;18.50;1.00
29353;DHT22;16344;50.364;8.944;2022-09-20T12:11:08;18.40;1.00
29353;DHT22;16344;50.364;8.944;2022-09-20T12:13:38;18.30;1.00
29353;DHT22;16344;50.364;8.944;2022-09-20T12:16:05;18.40;1.00
29353;DHT22;16344;50.364;8.944;2022-09-20T12:18:44;18.20;1.00
29353;DHT22;16344;50.364;8.944;2022-09-20T12:21:15;18.10;1.00
29353;DHT22;16344;50.364;8.944;2022-09-20T12:23:59;17.90;1.00
29353;DHT22;16344;50.364;8.944;2022-09-20T12:28:55;17.70;1.00
29353;DHT22;16344;50.364;8.944;2022-09-20T12:34:02;17.70;1.00
29353;DHT22;16344;50.364;8.944;2022-09-20T12:39:24;17.60;1.00
29353;DHT22;16344;50.364;8.944;2022-09-20T12:42:00;17.60;1.00
29353;DHT22;16344;50.364;8.944;2022-09-20T12:44:58;17.70;1.00
29353;DHT22;16344;50.364;8.944;2022-09-20T12:47:24;17.80;1.00
29353;DHT22;16344;50.364;8.944;2022-09-20T12:49:56;17.50;1.00
29353;DHT22;16344;50.364;8.944;2022-09-20T13:08:46;18.10;1.00
29353;DHT22;16344;50.364;8.944;2022-09-20T13:16:47;18.10;1.00
29353;DHT22;16344;50.364;8.944;2022-09-20T13:19:18;18.20;1.00
29353;DHT22;16344;50.364;8.944;2022-09-20T13:24:38;17.70;1.00
29353;DHT22;16344;50.364;8.944;2022-09-20T13:27:13;17.70;1.00
29353;DHT22;16344;50.364;8.944;2022-09-20T13:29:42;17.90;1.00
29353;DHT22;16344;50.364;8.944;2022-09-20T13:32:29;17.90;1.00
29353;DHT22;16344;50.364;8.944;2022-09-20T13:35:14;18.00;1.00
29353;DHT22;16344;50.364;8.944;2022-09-20T13:42:47;18.50;1.00
29353;DHT22;16344;50.364;8.944;2022-09-20T13:45:13;18.50;1.00
29353;DHT22;16344;50.364;8.944;2022-09-20T13:47:43;18.70;1.00
29353;DHT22;16344;50.364;8.944;2022-09-20T13:50:21;18.70;1.00
29353;DHT22;16344;50.364;8.944;2022-09-20T13:52:53;18.80;1.00
29353;DHT22;16344;50.364;8.944;2022-09-20T13:55:31;18.70;1.00
29353;DHT22;16344;50.364;8.944;2022-09-20T13:58:18;18.80;1.00
29353;DHT22;16344;50.364;8.944;2022-09-20T14:00:50;18.70;1.00
29353;DHT22;16344;50.364;8.944;2022-09-20T14:03:18;18.80;1.00
29353;DHT22;16344;50.364;8.944;2022-09-20T14:05:52;18.90;1.00
29353;DHT22;16344;50.364;8.944;2022-09-20T14:08:22;18.90;1.00
29353;DHT22;16344;50.364;8.944;2022-09-20T14:11:15;19.00;1.00
29353;DHT22;16344;50.364;8.944;2022-09-20T14:13:45;19.00;1.00
29353;DHT22;16344;50.364;8.944;2022-09-20T14:16:12;18.70;1.00
29353;DHT22;16344;50.364;8.944;2022-09-20T14:18:39;18.60;1.00
29353;DHT22;16344;50.364;8.944;2022-09-20T14:21:09;18.70;1.00
29353;DHT22;16344;50.364;8.944;2022-09-20T14:23:56;18.90;1.00
29353;DHT22;16344;50.364;8.944;2022-09-20T14:26:25;19.10;1.00
29353;DHT22;16344;50.364;8.944;2022-09-20T14:28:52;19.20;1.00
29353;DHT22;16344;50.364;8.944;2022-09-20T14:33:49;19.30;1.00
29353;DHT22;16344;50.364;8.944;2022-09-20T14:36:21;19.30;1.00
29353;DHT22;16344;50.364;8.944;2022-09-20T14:38:51;19.20;1.00
29353;DHT22;16344;50.364;8.944;2022-09-20T14:41:26;19.20;1.00
29353;DHT22;16344;50.364;8.944;2022-09-20T14:43:55;19.20;1.00
29353;DHT22;16344;50.364;8.944;2022-09-20T14:51:51;18.80;1.00
29353;DHT22;16344;50.364;8.944;2022-09-20T14:54:29;18.40;1.00
29353;DHT22;16344;50.364;8.944;2022-09-20T14:56:57;18.00;1.00
29353;DHT22;16344;50.364;8.944;2022-09-20T14:59:27;17.50;1.00
29353;DHT22;16344;50.364;8.944;2022-09-20T15:04:23;17.10;14.10
29353;DHT22;16344;50.364;8.944;2022-09-20T15:06:51;17.10;21.10
29353;DHT22;16344;50.364;8.944;2022-09-20T15:09:18;17.10;9.90
29353;DHT22;16344;50.364;8.944;2022-09-20T15:11:44;17.20;85.20
29353;DHT22;16344;50.364;8.944;2022-09-20T15:14:10;17.10;71.40
29353;DHT22;16344;50.364;8.944;2022-09-20T15:16:36;17.10;2.10
29353;DHT22;16344;50.364;8.944;2022-09-20T15:19:01;17.00;48.20
29353;DHT22;16344;50.364;8.944;2022-09-20T15:21:28;17.00;24.30
29353;DHT22;16344;50.364;8.944;2022-09-20T15:23:54;16.90;1.00
29353;DHT22;16344;50.364;8.944;2022-09-20T15:26:20;16.90;1.00
29353;DHT22;16344;50.364;8.944;2022-09-20T15:28:46;16.90;1.00
29353;DHT22;16344;50.364;8.944;2022-09-20T15:31:12;16.90;1.00
29353;DHT22;16344;50.364;8.944;2022-09-20T15:33:39;16.90;1.00
29353;DHT22;16344;50.364;8.944;2022-09-20T15:36:05;16.90;1.00
29353;DHT22;16344;50.364;8.944;2022-09-20T15:38:31;16.90;1.00
29353;DHT22;16344;50.364;8.944;2022-09-20T15:40:59;16.90;1.00
29353;DHT22;16344;50.364;8.944;2022-09-20T15:43:25;16.60;1.00
29353;DHT22;16344;50.364;8.944;2022-09-20T15:45:57;16.20;1.00
29353;DHT22;16344;50.364;8.944;2022-09-20T15:48:25;16.30;1.00
29353;DHT22;16344;50.364;8.944;2022-09-20T15:53:33;16.70;1.00
29353;DHT22;16344;50.364;8.944;2022-09-20T15:56:01;16.80;1.00
29353;DHT22;16344;50.364;8.944;2022-09-20T15:58:31;16.90;1.00
29353;DHT22;16344;50.364;8.944;2022-09-20T16:01:06;16.90;1.00
29353;DHT22;16344;50.364;8.944;2022-09-20T16:03:33;17.00;1.00
29353;DHT22;16344;50.364;8.944;2022-09-20T16:06:00;17.00;1.00
29353;DHT22;16344;50.364;8.944;2022-09-20T16:08:29;16.70;39.30
29353;DHT22;16344;50.364;8.944;2022-09-20T16:10:57;16.30;99.90
29353;DHT22;16344;50.364;8.944;2022-09-20T16:13:22;16.10;99.90
29353;DHT22;16344;50.364;8.944;2022-09-20T16:15:59;16.10;99.90
29353;DHT22;16344;50.364;8.944;2022-09-20T16:18:26;16.10;99.90
29353;DHT22;16344;50.364;8.944;2022-09-20T16:21:12;15.90;99.90
29353;DHT22;16344;50.364;8.944;2022-09-20T16:23:39;15.90;99.90
29353;DHT22;16344;50.364;8.944;2022-09-20T16:26:06;15.60;99.90
29353;DHT22;16344;50.364;8.944;2022-09-20T16:28:32;15.60;99.90
29353;DHT22;16344;50.364;8.944;2022-09-20T16:30:58;15.50;99.90
29353;DHT22;16344;50.364;8.944;2022-09-20T16:33:25;15.60;99.90
29353;DHT22;16344;50.364;8.944;2022-09-20T16:35:51;15.70;99.90
29353;DHT22;16344;50.364;8.944;2022-09-20T16:38:16;15.70;99.90
29353;DHT22;16344;50.364;8.944;2022-09-20T16:40:43;15.80;99.90
29353;DHT22;16344;50.364;8.944;2022-09-20T16:43:08;15.70;99.90
29353;DHT22;16344;50.364;8.944;2022-09-20T16:45:34;15.60;99.90
29353;DHT22;16344;50.364;8.944;2022-09-20T16:48:00;15.50;99.90
29353;DHT22;16344;50.364;8.944;2022-09-20T16:50:27;15.50;99.90
29353;DHT22;16344;50.364;8.944;2022-09-20T16:52:53;15.50;99.90
29353;DHT22;16344;50.364;8.944;2022-09-20T16:55:19;15.50;99.90
29353;DHT22;16344;50.364;8.944;2022-09-20T16:57:48;15.50;99.90
29353;DHT22;16344;50.364;8.944;2022-09-20T17:00:13;15.50;99.90
29353;DHT22;16344;50.364;8.944;2022-09-20T17:02:41;15.40;99.90
29353;DHT22;16344;50.364;8.944;2022-09-20T17:05:07;15.40;99.90
29353;DHT22;16344;50.364;8.944;2022-09-20T17:07:32;15.40;99.90
29353;DHT22;16344;50.364;8.944;2022-09-20T17:09:58;15.40;99.90
29353;DHT22;16344;50.364;8.944;2022-09-20T17:12:26;15.30;99.90
29353;DHT22;16344;50.364;8.944;2022-09-20T17:14:57;15.30;99.90
29353;DHT22;16344;50.364;8.944;2022-09-20T17:17:22;15.40;99.90
29353;DHT22;16344;50.364;8.944;2022-09-20T17:19:48;15.50;99.90
29353;DHT22;16344;50.364;8.944;2022-09-20T17:22:13;15.50;99.90
29353;DHT22;16344;50.364;8.944;2022-09-20T17:24:39;15.50;99.90
29353;DHT22;16344;50.364;8.944;2022-09-20T17:27:05;15.40;99.90
29353;DHT22;16344;50.364;8.944;2022-09-20T17:29:31;15.30;99.90
29353;DHT22;16344;50.364;8.944;2022-09-20T17:31:56;15.20;99.90
29353;DHT22;16344;50.364;8.944;2022-09-20T17:34:25;15.20;99.90
29353;DHT22;16344;50.364;8.944;2022-09-20T17:36:52;15.30;99.90
29353;DHT22;16344;50.364;8.944;2022-09-20T17:39:20;15.20;99.90
29353;DHT22;16344;50.364;8.944;2022-09-20T17:41:47;15.30;99.90
29353;DHT22;16344;50.364;8.944;2022-09-20T17:44:14;15.50;99.90
29353;DHT22;16344;50.364;8.944;2022-09-20T17:46:41;15.40;99.90
29353;DHT22;16344;50.364;8.944;2022-09-20T17:49:12;15.50;99.90
29353;DHT22;16344;50.364;8.944;2022-09-20T17:51:40;15.40;99.90
29353;DHT22;16344;50.364;8.944;2022-09-20T17:54:06;15.30;99.90
29353;DHT22;16344;50.364;8.944;2022-09-20T17:56:33;15.20;99.90
29353;DHT22;16344;50.364;8.944;2022-09-20T17:59:01;15.10;99.90
29353;DHT22;16344;50.364;8.944;2022-09-20T18:01:28;15.10;99.90
29353;DHT22;16344;50.364;8.944;2022-09-20T18:03:56;15.20;99.90
29353;DHT22;16344;50.364;8.944;2022-09-20T18:06:40;15.20;99.90
29353;DHT22;16344;50.364;8.944;2022-09-20T18:09:10;15.10;99.90
29353;DHT22;16344;50.364;8.944;2022-09-20T18:11:40;15.20;99.90
29353;DHT22;16344;50.364;8.944;2022-09-20T18:14:07;15.10;99.90
29353;DHT22;16344;50.364;8.944;2022-09-20T18:16:35;15.00;99.90
29353;DHT22;16344;50.364;8.944;2022-09-20T18:19:01;14.90;99.90
29353;DHT22;16344;50.364;8.944;2022-09-20T18:21:28;14.90;99.90
29353;DHT22;16344;50.364;8.944;2022-09-20T18:23:55;14.90;99.90
29353;DHT22;16344;50.364;8.944;2022-09-20T18:26:23;14.80;99.90
29353;DHT22;16344;50.364;8.944;2022-09-20T18:28:54;14.80;99.90
29353;DHT22;16344;50.364;8.944;2022-09-20T18:31:25;14.70;99.90
29353;DHT22;16344;50.364;8.944;2022-09-20T18:33:52;14.60;99.90
29353;DHT22;16344;50.364;8.944;2022-09-20T18:36:18;14.60;99.90
29353;DHT22;16344;50.364;8.944;2022-09-20T18:38:44;14.50;99.90
29353;DHT22;16344;50.364;8.944;2022-09-20T18:41:10;14.60;99.90
29353;DHT22;16344;50.364;8.944;2022-09-20T18:43:38;14.60;99.90
29353;DHT22;16344;50.364;8.944;2022-09-20T18:46:06;14.70;99.90
29353;DHT22;16344;50.364;8.944;2022-09-20T18:48:32;14.60;99.90
29353;DHT22;16344;50.364;8.944;2022-09-20T18:51:04;14.60;99.90
29353;DHT22;16344;50.364;8.944;2022-09-20T18:53:35;14.60;99.90
29353;DHT22;16344;50.364;8.944;2022-09-20T18:56:12;14.70;99.90
29353;DHT22;16344;50.364;8.944;2022-09-20T18:58:42;14.70;99.90
29353;DHT22;16344;50.364;8.944;2022-09-20T19:01:28;14.70;99.90
29353;DHT22;16344;50.364;8.944;2022-09-20T19:09:58;14.70;99.90
29353;DHT22;16344;50.364;8.944;2022-09-20T19:12:53;14.60;99.90
29353;DHT22;16344;50.364;8.944;2022-09-20T19:23:50;14.60;99.90
29353;DHT22;16344;50.364;8.944;2022-09-20T19:26:22;14.50;99.90
29353;DHT22;16344;50.364;8.944;2022-09-20T19:28:49;14.50;99.90
29353;DHT22;16344;50.364;8.944;2022-09-20T19:31:22;14.50;99.90
29353;DHT22;16344;50.364;8.944;2022-09-20T19:33:48;14.40;99.90
29353;DHT22;16344;50.364;8.944;2022-09-20T19:36:15;14.50;99.90
29353;DHT22;16344;50.364;8.944;2022-09-20T19:38:58;14.50;99.90
29353;DHT22;16344;50.364;8.944;2022-09-20T19:44:41;14.60;99.90
29353;DHT22;16344;50.364;8.944;2022-09-20T19:47:20;14.60;99.90
29353;DHT22;16344;50.364;8.944;2022-09-20T19:49:58;14.60;99.90
29353;DHT22;16344;50.364;8.944;2022-09-20T19:52:27;14.70;99.90
29353;DHT22;16344;50.364;8.944;2022-09-20T19:54:53;14.50;99.90
29353;DHT22;16344;50.364;8.944;2022-09-20T19:57:27;14.40;99.90
29353;DHT22;16344;50.364;8.944;2022-09-20T19:59:54;14.20;99.90
29353;DHT22;16344;50.364;8.944;2022-09-20T20:02:21;14.20;99.90
29353;DHT22;16344;50.364;8.944;2022-09-20T20:04:47;14.10;99.90
29353;DHT22;16344;50.364;8.944;2022-09-20T20:08:21;14.10;99.90
29353;DHT22;16344;50.364;8.944;2022-09-20T20:10:56;14.20;99.90
29353;DHT22;16344;50.364;8.944;2022-09-20T20:13:35;14.30;99.90
29353;DHT22;16344;50.364;8.944;2022-09-20T20:16:32;14.20;99.90
29353;DHT22;16344;50.364;8.944;2022-09-20T20:22:51;14.10;99.90
29353;DHT22;16344;50.364;8.944;2022-09-20T20:24:49;14.00;99.90
29353;DHT22;16344;50.364;8.944;2022-09-20T20:27:16;13.80;99.90
29353;DHT22;16344;50.364;8.944;2022-09-20T20:29:41;13.70;99.90
29353;DHT22;16344;50.364;8.944;2022-09-20T20:32:07;13.60;99.90
29353;DHT22;16344;50.364;8.944;2022-09-20T20:34:32;13.70;99.90
29353;DHT22;16344;50.364;8.944;2022-09-20T20:37:00;13.70;99.90
29353;DHT22;16344;50.364;8.944;2022-09-20T20:39:26;13.70;99.90
29353;DHT22;16344;50.364;8.944;2022-09-20T20:41:53;13.70;99.90
29353;DHT22;16344;50.364;8.944;2022-09-20T20:44:18;13.80;99.90